Time;durP1;ratioP1;P1;durP2;ratioP2;P2;SDS_P1;SDS_P2;PMS_P1;PMS_P2;Temp;Humidity;BMP_temperature;BMP_pressure;BME280_temperature;BME280_humidity;BME280_pressure;Samples;Min_cycle;Max_cycle;Signal;HPM_P1;HPM_P2
2021/12/25 00:00:11;;;;;;;;;;;;;;;12.28;61.33;99387.44;4958800;28;6791;-71
2021/12/25 00:02:38;;;;;;;;;;;;;;;12.24;61.31;99385.66;4942512;28;7010;-71
2021/12/25 00:05:05;;;;;;;;;;;;;;;12.22;60.59;99380.47;4958371;28;6808;-71
2021/12/25 00:07:31;;;;;;;;;;;;;;;12.19;60.60;99381.25;4956502;28;7884;-71
2021/12/25 00:09:58;;;;;;;;;;;;;;;12.17;61.44;99377.78;4941560;28;7003;-71
2021/12/25 00:12:24;;;;;;;;;;;;;;;12.17;61.46;99382.06;4959529;28;6804;-71
2021/12/25 00:14:50;;;;;;;;;;;;;;;12.13;60.65;99377.66;4956689;28;6799;-71
2021/12/25 00:17:16;;;;;;;;;;;;;;;12.06;61.26;99374.06;4957148;28;7972;-71
2021/12/25 00:19:43;;;;;;;;;;;;;;;11.96;60.46;99378.06;4957984;28;7346;-71
2021/12/25 00:22:09;;;;;;;;;;;;;;;11.86;60.22;99373.50;4958725;28;7849;-71
2021/12/25 00:24:41;;;;;;;;;;;;;;;11.74;60.47;99372.38;4958319;28;6799;-71
2021/12/25 00:27:22;;;;;;;;;;;;;;;11.67;61.14;99368.78;4958053;28;6824;-71
2021/12/25 00:32:44;;;;;;;;;;;;;;;11.55;61.22;99376.16;4959096;28;7913;-71
2021/12/25 00:35:10;;;;;;;;;;;;;;;11.49;61.08;99365.69;4940951;28;7204;-71
2021/12/25 00:37:36;;;;;;;;;;;;;;;11.46;61.22;99371.59;4936949;28;6804;-71
2021/12/25 00:40:03;;;;;;;;;;;;;;;11.43;61.41;99362.94;4942788;28;6800;-71
2021/12/25 00:42:30;;;;;;;;;;;;;;;11.40;61.38;99368.88;4956938;28;6812;-71
2021/12/25 00:44:55;;;;;;;;;;;;;;;11.37;61.66;99366.22;4959134;28;6812;-71
2021/12/25 00:47:21;;;;;;;;;;;;;;;11.34;61.46;99356.72;4955736;28;7201;-71
2021/12/25 00:49:47;;;;;;;;;;;;;;;11.31;61.56;99356.66;4958806;28;6791;-71
2021/12/25 00:52:13;;;;;;;;;;;;;;;11.31;61.59;99355.81;4956684;28;6896;-70
2021/12/25 00:54:39;;;;;;;;;;;;;;;11.28;61.16;99356.56;4941270;28;6847;-70
2021/12/25 00:57:05;;;;;;;;;;;;;;;11.27;61.72;99364.22;4958374;28;6966;-71
2021/12/25 00:59:31;;;;;;;;;;;;;;;11.25;61.57;99356.47;4955982;28;7013;-70
2021/12/25 01:01:58;;;;;;;;;;;;;;;11.21;61.60;99365.81;4940168;28;7195;-70
2021/12/25 01:04:24;;;;;;;;;;;;;;;11.20;61.41;99363.19;4956143;28;6896;-70
2021/12/25 01:06:52;;;;;;;;;;;;;;;11.14;61.57;99355.31;4917860;28;7206;-70
2021/12/25 01:09:17;;;;;;;;;;;;;;;11.10;61.42;99354.34;4953754;28;6899;-70
2021/12/25 01:11:46;;;;;;;;;;;;;;;11.07;61.36;99356.81;4958608;28;7195;-70
2021/12/25 01:14:23;;;;;;;;;;;;;;;11.01;61.42;99357.50;4958728;28;7878;-70
2021/12/25 01:17:20;;;;;;;;;;;;;;;10.96;61.51;99359.06;4951491;28;6812;-70
2021/12/25 01:25:33;;;;;;;;;;;;;;;10.77;61.51;99363.66;4955274;28;6816;-71
2021/12/25 01:36:00;;;;;;;;;;;;;;;10.64;62.12;99356.41;4954877;28;6823;-70
2021/12/25 01:41:29;;;;;;;;;;;;;;;10.59;61.75;99353.69;4958223;28;7351;-70
2021/12/25 01:49:26;;;;;;;;;;;;;;;10.54;61.83;99361.25;4955855;28;7028;-70
2021/12/25 01:51:52;;;;;;;;;;;;;;;10.53;61.87;99349.25;4947275;28;7857;-70
2021/12/25 01:54:17;;;;;;;;;;;;;;;10.54;62.63;99351.00;4953988;28;6784;-70
2021/12/25 01:56:43;;;;;;;;;;;;;;;10.54;62.23;99350.13;4955191;28;6904;-70
2021/12/25 01:59:11;;;;;;;;;;;;;;;10.53;61.82;99345.84;4940651;28;7154;-70
2021/12/25 02:01:37;;;;;;;;;;;;;;;10.51;62.12;99350.03;4941617;28;7032;-70
2021/12/25 02:04:03;;;;;;;;;;;;;;;10.51;62.13;99358.59;4967430;28;7619;-71
2021/12/25 02:06:28;;;;;;;;;;;;;;;10.50;62.42;99354.28;4938938;28;6913;-71
2021/12/25 02:08:54;;;;;;;;;;;;;;;10.51;62.30;99355.16;4953512;28;6889;-71
2021/12/25 02:11:20;;;;;;;;;;;;;;;10.50;61.46;99353.41;4956653;28;6776;-71
2021/12/25 02:13:46;;;;;;;;;;;;;;;10.46;62.01;99357.56;4955845;28;6772;-71
2021/12/25 02:16:17;;;;;;;;;;;;;;;10.45;62.01;99362.66;4937888;28;7024;-71
2021/12/25 02:21:45;;;;;;;;;;;;;;;10.39;61.86;99356.47;4954605;28;6816;-71
2021/12/25 02:24:12;;;;;;;;;;;;;;;10.35;62.25;99359.75;4956115;28;7129;-71
2021/12/25 02:26:43;;;;;;;;;;;;;;;10.33;61.88;99353.69;4957352;28;6884;-71
2021/12/25 02:29:09;;;;;;;;;;;;;;;10.32;61.90;99356.22;4955594;28;7203;-71
2021/12/25 02:31:35;;;;;;;;;;;;;;;10.31;62.32;99357.06;4956274;28;6800;-70
2021/12/25 02:34:00;;;;;;;;;;;;;;;10.27;61.66;99356.09;4954832;28;6776;-71
2021/12/25 02:36:26;;;;;;;;;;;;;;;10.26;61.99;99354.34;4953520;28;7415;-71
2021/12/25 02:38:52;;;;;;;;;;;;;;;10.23;61.88;99351.66;4954993;28;6792;-71
2021/12/25 02:41:19;;;;;;;;;;;;;;;10.22;62.23;99355.03;4955751;28;7158;-71
2021/12/25 02:43:46;;;;;;;;;;;;;;;10.19;61.56;99349.84;4955495;28;6872;-70
2021/12/25 02:46:14;;;;;;;;;;;;;;;10.17;61.94;99351.47;4955209;28;7244;-71
2021/12/25 02:48:42;;;;;;;;;;;;;;;10.13;61.76;99340.25;4943075;28;7203;-71
2021/12/25 02:51:10;;;;;;;;;;;;;;;10.10;61.67;99351.28;4962100;28;7019;-71
2021/12/25 02:53:38;;;;;;;;;;;;;;;10.09;61.97;99351.22;4959012;28;7259;-71
2021/12/25 02:56:08;;;;;;;;;;;;;;;10.05;61.67;99352.81;4975236;28;6800;-71
2021/12/25 02:58:33;;;;;;;;;;;;;;;10.04;61.74;99351.06;4973760;28;6808;-71
2021/12/25 03:01:11;;;;;;;;;;;;;;;10.01;62.25;99353.53;4958913;28;7238;-70
2021/12/25 03:03:38;;;;;;;;;;;;;;;10.00;62.11;99356.91;4931391;28;7031;-70
2021/12/25 03:06:07;;;;;;;;;;;;;;;9.99;61.97;99356.06;4961573;28;6864;-71
2021/12/25 03:08:33;;;;;;;;;;;;;;;9.97;62.43;99352.53;4962545;28;6976;-71
2021/12/25 03:11:00;;;;;;;;;;;;;;;9.93;61.74;99347.28;4977010;28;6811;-70
2021/12/25 03:15:55;;;;;;;;;;;;;;;9.82;61.65;99342.66;4952554;28;7202;-70
2021/12/25 03:18:29;;;;;;;;;;;;;;;9.80;62.09;99344.31;4958521;28;6800;-70
2021/12/25 03:21:01;;;;;;;;;;;;;;;9.77;62.53;99339.09;4931852;28;6876;-70
2021/12/25 03:23:30;;;;;;;;;;;;;;;9.71;61.63;99341.44;4962003;28;6979;-70
2021/12/25 03:25:59;;;;;;;;;;;;;;;9.66;62.45;99350.66;4963298;28;6816;-70
2021/12/25 03:28:31;;;;;;;;;;;;;;;9.62;61.74;99348.78;4961655;28;6951;-70
2021/12/25 03:31:00;;;;;;;;;;;;;;;9.58;61.74;99351.25;4944115;28;6800;-70
2021/12/25 03:33:28;;;;;;;;;;;;;;;9.55;61.64;99351.13;4965593;28;7146;-70
2021/12/25 03:35:55;;;;;;;;;;;;;;;9.53;62.30;99355.31;4965324;28;6959;-70
2021/12/25 03:38:21;;;;;;;;;;;;;;;9.51;61.88;99353.50;4960723;28;6875;-70
2021/12/25 03:40:49;;;;;;;;;;;;;;;9.48;62.00;99355.97;4960701;28;6824;-70
2021/12/25 03:43:17;;;;;;;;;;;;;;;9.46;62.34;99358.47;4964781;28;6793;-70
2021/12/25 03:45:43;;;;;;;;;;;;;;;9.45;62.68;99356.72;4962495;28;6828;-70
2021/12/25 03:59:12;;;;;;;;;;;;;;;9.29;62.70;99375.75;4959353;28;7972;-70
2021/12/25 04:04:18;;;;;;;;;;;;;;;9.25;61.98;99369.66;4958257;28;7055;-70
2021/12/25 04:06:57;;;;;;;;;;;;;;;9.22;62.42;99369.56;4958754;28;7038;-70
2021/12/25 04:09:25;;;;;;;;;;;;;;;9.20;62.16;99368.63;4958030;28;6828;-70
2021/12/25 04:11:54;;;;;;;;;;;;;;;9.17;61.61;99369.38;4952824;28;8242;-70
2021/12/25 04:14:20;;;;;;;;;;;;;;;9.14;62.22;99376.06;4939890;28;7018;-70
2021/12/25 04:16:46;;;;;;;;;;;;;;;9.11;62.38;99376.81;4957583;28;6820;-70
2021/12/25 04:19:12;;;;;;;;;;;;;;;9.07;62.06;99368.97;4943472;28;7297;-70
2021/12/25 04:21:47;;;;;;;;;;;;;;;9.05;62.38;99370.63;4958441;28;7242;-70
2021/12/25 04:24:12;;;;;;;;;;;;;;;9.00;62.30;99381.56;4958326;28;6804;-70
2021/12/25 04:26:41;;;;;;;;;;;;;;;8.97;61.98;99378.84;4953529;28;6807;-70
2021/12/25 04:29:30;;;;;;;;;;;;;;;8.93;62.08;99382.13;4957462;28;6820;-70
2021/12/25 05:02:02;;;;;;;;;;;;;;;8.51;62.55;99377.94;4955611;28;6828;-70
2021/12/25 05:04:36;;;;;;;;;;;;;;;8.46;62.14;99387.94;4959038;28;7932;-70
2021/12/25 05:07:05;;;;;;;;;;;;;;;8.41;62.27;99389.47;4956948;28;7374;-70
2021/12/25 05:09:30;;;;;;;;;;;;;;;8.39;62.30;99388.50;4956537;28;6812;-70
2021/12/25 05:11:56;;;;;;;;;;;;;;;8.37;62.66;99386.72;4955304;28;7412;-70
2021/12/25 05:14:22;;;;;;;;;;;;;;;8.33;62.20;99393.38;4957210;28;6882;-70
2021/12/25 05:16:47;;;;;;;;;;;;;;;8.30;61.94;99389.00;4954684;28;6981;-70
2021/12/25 05:19:13;;;;;;;;;;;;;;;8.27;62.50;99396.56;4939343;28;7861;-71
2021/12/25 05:21:39;;;;;;;;;;;;;;;8.24;62.01;99398.97;4954577;28;6812;-70
2021/12/25 05:24:06;;;;;;;;;;;;;;;8.18;62.29;99391.91;4935736;28;7158;-70
2021/12/25 05:26:33;;;;;;;;;;;;;;;8.16;61.86;99393.53;4957769;28;6803;-70
2021/12/25 05:29:00;;;;;;;;;;;;;;;8.12;61.77;99399.34;4956897;28;6800;-70
2021/12/25 05:31:30;;;;;;;;;;;;;;;8.08;62.82;99389.78;4954634;28;7318;-70
2021/12/25 05:33:57;;;;;;;;;;;;;;;8.06;62.24;99394.84;4956729;28;6820;-70
2021/12/25 05:36:24;;;;;;;;;;;;;;;8.04;63.01;99399.00;4946546;28;6804;-70
2021/12/25 05:38:50;;;;;;;;;;;;;;;8.02;61.97;99400.63;4937725;28;6840;-70
2021/12/25 05:41:16;;;;;;;;;;;;;;;7.98;61.46;99401.31;4952945;28;6801;-70
2021/12/25 05:43:43;;;;;;;;;;;;;;;7.94;61.88;99411.31;4956458;28;6797;-70
2021/12/25 05:46:08;;;;;;;;;;;;;;;7.89;62.47;99417.09;4955773;28;7247;-70
2021/12/25 05:48:37;;;;;;;;;;;;;;;7.85;61.61;99422.00;4958124;28;6812;-70
2021/12/25 05:51:05;;;;;;;;;;;;;;;7.81;61.94;99431.19;4936878;28;7351;-70
2021/12/25 05:53:33;;;;;;;;;;;;;;;7.77;62.69;99411.47;4956174;28;7905;-70
2021/12/25 05:55:59;;;;;;;;;;;;;;;7.75;62.07;99421.59;4955188;28;7261;-70
2021/12/25 05:58:25;;;;;;;;;;;;;;;7.74;61.95;99431.75;4956735;28;6994;-70
2021/12/25 06:00:51;;;;;;;;;;;;;;;7.70;61.87;99432.41;4935693;28;6852;-70
2021/12/25 06:03:17;;;;;;;;;;;;;;;7.67;62.28;99439.94;4956291;28;6814;-70
2021/12/25 06:05:43;;;;;;;;;;;;;;;7.62;62.17;99442.28;4956985;28;7306;-70
2021/12/25 06:08:08;;;;;;;;;;;;;;;7.59;61.39;99447.25;4939971;28;7245;-70
2021/12/25 06:10:35;;;;;;;;;;;;;;;7.53;62.30;99442.72;4958088;28;6804;-70
2021/12/25 06:13:01;;;;;;;;;;;;;;;7.47;61.59;99447.56;4955881;28;6903;-70
2021/12/25 06:15:28;;;;;;;;;;;;;;;7.43;61.88;99455.84;4952843;28;7211;-70
2021/12/25 06:17:57;;;;;;;;;;;;;;;7.39;61.70;99459.97;4955012;28;7821;-72
2021/12/25 06:20:23;;;;;;;;;;;;;;;7.36;62.62;99460.69;4970564;28;6991;-72
2021/12/25 06:22:49;;;;;;;;;;;;;;;7.33;62.08;99464.78;4957550;28;6852;-72
2021/12/25 06:25:15;;;;;;;;;;;;;;;7.31;62.64;99459.59;4954933;28;6784;-72
2021/12/25 06:27:40;;;;;;;;;;;;;;;7.29;62.38;99468.84;4950638;28;7164;-73
2021/12/25 06:30:08;;;;;;;;;;;;;;;7.25;62.28;99466.97;4940508;28;6883;-73
2021/12/25 06:32:34;;;;;;;;;;;;;;;7.24;61.91;99467.75;4949984;28;7281;-72
2021/12/25 06:35:00;;;;;;;;;;;;;;;7.23;62.59;99463.47;4947785;28;6816;-71
2021/12/25 06:37:26;;;;;;;;;;;;;;;7.22;62.19;99466.81;4952005;28;6804;-72
2021/12/25 06:39:52;;;;;;;;;;;;;;;7.21;61.94;99472.72;4954303;28;6783;-71
2021/12/25 06:42:18;;;;;;;;;;;;;;;7.19;62.89;99475.19;4954401;28;7869;-71
2021/12/25 06:44:44;;;;;;;;;;;;;;;7.19;62.36;99475.19;4951329;28;7889;-71
2021/12/25 06:47:10;;;;;;;;;;;;;;;7.20;62.24;99476.06;4947767;28;6843;-71
2021/12/25 06:49:36;;;;;;;;;;;;;;;7.18;62.64;99478.53;4953736;28;7301;-71
2021/12/25 06:52:02;;;;;;;;;;;;;;;7.15;62.57;99480.97;4950863;28;7608;-71
2021/12/25 06:54:27;;;;;;;;;;;;;;;7.13;61.63;99481.69;4949382;28;7046;-71
2021/12/25 06:56:54;;;;;;;;;;;;;;;7.09;62.25;99483.22;4916178;28;6969;-71
2021/12/25 06:59:21;;;;;;;;;;;;;;;7.05;61.88;99488.97;4938431;28;7186;-71
2021/12/25 07:01:49;;;;;;;;;;;;;;;7.02;61.92;99487.16;4931101;28;8364;-71
2021/12/25 07:04:15;;;;;;;;;;;;;;;6.98;62.47;99487.81;4934309;28;6890;-71
2021/12/25 07:06:40;;;;;;;;;;;;;;;6.94;61.89;99498.63;4937335;28;6923;-71
2021/12/25 07:09:09;;;;;;;;;;;;;;;6.91;62.52;99490.84;4958621;28;6946;-71
2021/12/25 07:11:36;;;;;;;;;;;;;;;6.89;62.50;99490.78;4950139;28;7012;-71
2021/12/25 07:14:04;;;;;;;;;;;;;;;6.89;62.08;99493.31;4951619;28;6832;-71
2021/12/25 07:16:32;;;;;;;;;;;;;;;6.91;62.38;99503.59;4950685;28;6944;-71
2021/12/25 07:18:58;;;;;;;;;;;;;;;6.90;61.99;99500.16;4968621;28;7010;-71
2021/12/25 07:21:24;;;;;;;;;;;;;;;6.91;62.97;99507.03;4951072;28;7304;-71
2021/12/25 07:23:50;;;;;;;;;;;;;;;6.90;62.07;99509.50;4948869;28;6835;-71
2021/12/25 07:26:19;;;;;;;;;;;;;;;6.88;61.96;99511.09;4950747;28;6876;-71
2021/12/25 07:28:45;;;;;;;;;;;;;;;6.84;62.25;99509.19;4950061;28;6967;-71
2021/12/25 07:31:11;;;;;;;;;;;;;;;6.82;62.47;99504.03;4950171;28;6903;-71
2021/12/25 07:33:40;;;;;;;;;;;;;;;6.81;62.25;99515.88;4957849;28;7410;-71
2021/12/25 07:36:09;;;;;;;;;;;;;;;6.80;62.28;99519.22;4940587;28;7018;-71
2021/12/25 07:38:35;;;;;;;;;;;;;;;6.79;61.97;99521.69;4968687;28;7055;-72
2021/12/25 07:41:01;;;;;;;;;;;;;;;6.78;62.73;99533.56;4954930;28;6804;-71
2021/12/25 07:43:27;;;;;;;;;;;;;;;6.79;62.79;99532.78;4949726;28;7719;-71
2021/12/25 07:45:53;;;;;;;;;;;;;;;6.80;62.70;99531.97;4953100;28;6875;-71
2021/12/25 07:48:21;;;;;;;;;;;;;;;6.79;62.49;99537.88;4954035;28;6871;-72
2021/12/25 07:50:48;;;;;;;;;;;;;;;6.77;62.37;99539.47;4944786;28;7166;-72
2021/12/25 07:53:16;;;;;;;;;;;;;;;6.75;61.82;99535.94;4948585;28;6830;-71
2021/12/25 07:55:49;;;;;;;;;;;;;;;6.73;62.33;99537.56;4950398;28;7053;-71
2021/12/25 07:58:17;;;;;;;;;;;;;;;6.70;61.96;99539.06;4948772;28;6884;-71
2021/12/25 08:00:44;;;;;;;;;;;;;;;6.68;61.95;99551.75;4921620;28;6995;-71
2021/12/25 08:03:12;;;;;;;;;;;;;;;6.66;62.05;99551.66;4938613;28;6859;-72
2021/12/25 08:05:38;;;;;;;;;;;;;;;6.65;62.16;99549.91;4946286;28;6828;-72
2021/12/25 08:08:04;;;;;;;;;;;;;;;6.63;61.67;99558.25;4940933;28;6808;-72
2021/12/25 08:10:31;;;;;;;;;;;;;;;6.61;61.98;99552.22;4947780;28;6827;-71
2021/12/25 08:12:59;;;;;;;;;;;;;;;6.60;62.08;99556.44;4951353;28;8072;-72
2021/12/25 08:15:29;;;;;;;;;;;;;;;6.60;62.35;99565.75;4964404;28;7347;-72
2021/12/25 08:17:57;;;;;;;;;;;;;;;6.58;62.01;99568.22;4945359;28;7030;-72
2021/12/25 08:20:24;;;;;;;;;;;;;;;6.58;62.00;99569.91;4957580;28;6824;-71
2021/12/25 08:22:50;;;;;;;;;;;;;;;6.53;61.56;99578.16;4949141;28;6991;-71
2021/12/25 08:25:17;;;;;;;;;;;;;;;6.50;61.66;99570.38;4966994;28;7031;-71
2021/12/25 08:27:46;;;;;;;;;;;;;;;6.47;62.43;99577.00;4949725;28;6825;-72
2021/12/25 08:30:18;;;;;;;;;;;;;;;6.45;62.26;99584.53;4966690;28;7332;-72
2021/12/25 08:32:44;;;;;;;;;;;;;;;6.43;61.74;99578.50;4951560;28;6831;-72
2021/12/25 08:35:14;;;;;;;;;;;;;;;6.43;62.03;99583.59;4947022;28;6823;-72
2021/12/25 08:37:41;;;;;;;;;;;;;;;6.43;61.65;99586.13;4959965;28;6816;-72
2021/12/25 08:40:08;;;;;;;;;;;;;;;6.43;62.09;99587.81;4944813;28;6896;-72
2021/12/25 08:42:35;;;;;;;;;;;;;;;6.43;61.74;99586.13;4951350;28;6804;-72
2021/12/25 08:47:33;;;;;;;;;;;;;;;6.41;62.13;99591.94;4950297;28;6791;-72
2021/12/25 08:50:02;;;;;;;;;;;;;;;6.39;61.78;99590.19;4951414;28;6832;-72
2021/12/25 08:52:28;;;;;;;;;;;;;;;6.37;62.47;99594.34;4949035;28;6804;-72
2021/12/25 08:54:53;;;;;;;;;;;;;;;6.37;62.19;99601.97;4939772;28;8737;-72
2021/12/25 08:57:22;;;;;;;;;;;;;;;6.37;62.22;99608.72;4941512;28;8249;-72
2021/12/25 08:59:51;;;;;;;;;;;;;;;6.36;61.79;99605.31;4949686;28;7146;-72
2021/12/25 09:02:19;;;;;;;;;;;;;;;6.35;61.84;99601.03;4942263;28;6888;-72
2021/12/25 09:04:48;;;;;;;;;;;;;;;6.33;62.49;99601.72;4947410;28;7003;-72
2021/12/25 09:07:15;;;;;;;;;;;;;;;6.32;61.50;99615.25;4943313;28;6816;-72
2021/12/25 09:09:41;;;;;;;;;;;;;;;6.29;62.02;99612.56;4940419;28;7246;-72
2021/12/25 09:12:14;;;;;;;;;;;;;;;6.28;61.99;99616.75;4948749;28;6796;-72
2021/12/25 09:14:40;;;;;;;;;;;;;;;6.27;62.12;99617.56;4952105;28;8302;-72
2021/12/25 09:17:08;;;;;;;;;;;;;;;6.28;61.95;99618.41;4926910;28;8095;-72
2021/12/25 09:19:34;;;;;;;;;;;;;;;6.29;62.38;99632.91;4945930;28;6815;-72
2021/12/25 09:22:00;;;;;;;;;;;;;;;6.28;62.07;99628.59;4946430;28;7120;-72
2021/12/25 09:24:26;;;;;;;;;;;;;;;6.27;61.47;99622.66;4948522;28;7241;-72
2021/12/25 09:26:52;;;;;;;;;;;;;;;6.25;61.90;99632.72;4946838;28;7318;-72
2021/12/25 09:29:18;;;;;;;;;;;;;;;6.25;61.98;99630.19;4929508;28;6861;-72
2021/12/25 09:31:44;;;;;;;;;;;;;;;6.24;61.92;99628.44;4943377;28;6800;-72
2021/12/25 09:34:10;;;;;;;;;;;;;;;6.24;61.93;99637.75;4947555;28;6907;-72
2021/12/25 09:36:36;;;;;;;;;;;;;;;6.25;61.83;99639.50;4947877;28;6974;-72
2021/12/25 09:39:05;;;;;;;;;;;;;;;6.27;62.11;99631.94;4947950;28;7231;-72
2021/12/25 09:41:33;;;;;;;;;;;;;;;6.28;62.39;99631.13;4943217;28;6796;-72
2021/12/25 09:44:00;;;;;;;;;;;;;;;6.29;62.23;99626.13;4948327;28;6820;-72
2021/12/25 09:46:26;;;;;;;;;;;;;;;6.31;62.07;99632.19;4947928;28;7047;-72
2021/12/25 09:48:52;;;;;;;;;;;;;;;6.32;61.81;99625.44;4963142;28;7314;-72
2021/12/25 09:51:18;;;;;;;;;;;;;;;6.33;61.66;99634.81;4929706;28;7260;-72
2021/12/25 09:54:07;;;;;;;;;;;;;;;6.33;61.54;99645.00;4948084;28;7007;-72
2021/12/25 09:56:40;;;;;;;;;;;;;;;6.33;61.72;99645.00;4948822;28;6840;-72
2021/12/25 09:59:10;;;;;;;;;;;;;;;6.32;61.87;99643.25;4941005;28;7284;-72
2021/12/25 10:01:57;;;;;;;;;;;;;;;6.32;61.70;99651.75;4945803;28;6828;-72
2021/12/25 10:04:46;;;;;;;;;;;;;;;6.30;62.15;99645.69;4950002;28;7089;-72
2021/12/25 10:07:19;;;;;;;;;;;;;;;6.30;61.47;99657.56;4943214;28;6812;-72
2021/12/25 10:10:07;;;;;;;;;;;;;;;6.29;61.49;99659.22;4943588;28;6808;-72
2021/12/25 10:12:44;;;;;;;;;;;;;;;6.25;61.69;99662.41;4942498;28;6975;-72
2021/12/25 10:15:21;;;;;;;;;;;;;;;6.24;61.37;99658.97;4941882;28;6819;-72
2021/12/25 10:17:54;;;;;;;;;;;;;;;6.25;62.01;99662.41;4943277;28;6832;-72
2021/12/25 10:20:30;;;;;;;;;;;;;;;6.29;61.72;99666.84;4944462;28;6819;-72
2021/12/25 10:23:11;;;;;;;;;;;;;;;6.32;62.12;99667.00;4948178;28;7941;-72
2021/12/25 10:25:55;;;;;;;;;;;;;;;6.36;61.89;99662.97;4947056;28;7358;-72
2021/12/25 10:28:35;;;;;;;;;;;;;;;6.37;61.60;99663.06;4931701;28;7082;-72
2021/12/25 10:31:16;;;;;;;;;;;;;;;6.38;61.79;99658.84;4951894;28;7432;-73
2021/12/25 10:33:52;;;;;;;;;;;;;;;6.38;61.27;99662.25;4930838;28;8205;-72
2021/12/25 10:36:33;;;;;;;;;;;;;;;6.39;61.81;99665.69;4948618;28;6816;-72
2021/12/25 10:39:04;;;;;;;;;;;;;;;6.38;61.60;99658.84;4948571;28;6824;-72
2021/12/25 10:41:35;;;;;;;;;;;;;;;6.40;61.66;99657.25;4948119;28;6815;-73
2021/12/25 10:44:13;;;;;;;;;;;;;;;6.43;61.66;99657.41;4924881;28;6833;-72
2021/12/25 10:47:13;;;;;;;;;;;;;;;6.45;61.64;99647.31;4942469;28;6886;-72
2021/12/25 10:49:44;;;;;;;;;;;;;;;6.47;61.40;99643.19;4947283;28;6836;-72
2021/12/25 10:52:41;;;;;;;;;;;;;;;6.50;61.67;99634.03;4939543;28;6832;-72
2021/12/25 10:55:17;;;;;;;;;;;;;;;6.53;61.75;99639.28;4945563;28;6843;-72
2021/12/25 10:57:51;;;;;;;;;;;;;;;6.55;61.54;99639.38;4947677;28;6803;-72
2021/12/25 11:00:20;;;;;;;;;;;;;;;6.56;61.44;99635.13;4944039;28;7227;-72
2021/12/25 11:02:52;;;;;;;;;;;;;;;6.57;61.30;99636.88;4953829;28;6859;-72
2021/12/25 11:05:21;;;;;;;;;;;;;;;6.59;61.58;99635.31;4950009;28;6900;-72
2021/12/25 11:08:01;;;;;;;;;;;;;;;6.61;61.21;99638.81;4952434;28;7931;-72
2021/12/25 11:10:29;;;;;;;;;;;;;;;6.60;61.03;99650.66;4946184;28;6839;-71
2021/12/25 11:12:57;;;;;;;;;;;;;;;6.60;61.14;99663.38;4952004;28;6808;-72
2021/12/25 11:15:30;;;;;;;;;;;;;;;6.59;60.95;99659.09;4946227;28;6913;-72
2021/12/25 11:18:05;;;;;;;;;;;;;;;6.57;60.89;99667.44;4932773;28;6974;-72
2021/12/25 11:20:36;;;;;;;;;;;;;;;6.56;60.82;99665.69;4939891;28;6836;-72
2021/12/25 11:23:06;;;;;;;;;;;;;;;6.52;60.43;99663.00;4952182;28;6812;-71
2021/12/25 11:25:34;;;;;;;;;;;;;;;6.49;60.74;99661.94;4939206;28;6975;-72
2021/12/25 11:28:09;;;;;;;;;;;;;;;6.47;60.78;99661.00;4952218;28;6994;-72
2021/12/25 11:30:44;;;;;;;;;;;;;;;6.44;60.88;99659.16;4946419;28;8723;-72
2021/12/25 11:33:11;;;;;;;;;;;;;;;6.43;61.26;99657.41;4948770;28;6816;-72
2021/12/25 11:35:39;;;;;;;;;;;;;;;6.42;60.91;99654.78;4948445;28;7255;-72
2021/12/25 11:38:08;;;;;;;;;;;;;;;6.45;60.90;99657.50;4947212;28;8133;-72
2021/12/25 11:40:40;;;;;;;;;;;;;;;6.46;61.50;99651.63;4946005;28;7864;-72
2021/12/25 11:43:06;;;;;;;;;;;;;;;6.47;60.77;99646.63;4947119;28;6828;-72
2021/12/25 11:45:37;;;;;;;;;;;;;;;6.48;60.94;99643.28;4947078;28;6819;-72
2021/12/25 11:48:20;;;;;;;;;;;;;;;6.47;61.10;99636.44;4948708;28;7006;-72
2021/12/25 11:50:51;;;;;;;;;;;;;;;6.48;60.89;99635.63;4951823;28;6832;-72
2021/12/25 11:53:43;;;;;;;;;;;;;;;6.51;61.69;99633.22;4946530;28;7499;-72
2021/12/25 11:56:29;;;;;;;;;;;;;;;6.58;61.27;99633.56;4950544;28;8614;-71
2021/12/25 11:59:10;;;;;;;;;;;;;;;6.66;61.36;99630.59;4950368;28;6973;-72
2021/12/25 12:01:48;;;;;;;;;;;;;;;6.73;60.95;99628.38;4933322;28;7286;-72
2021/12/25 12:04:24;;;;;;;;;;;;;;;6.77;60.58;99620.97;4946464;28;7376;-72
2021/12/25 12:07:01;;;;;;;;;;;;;;;6.83;60.39;99619.50;4950481;28;7257;-72
2021/12/25 12:09:51;;;;;;;;;;;;;;;6.85;60.49;99623.00;4950801;28;6832;-72
2021/12/25 12:12:29;;;;;;;;;;;;;;;6.81;59.87;99625.41;4931596;28;7233;-72
2021/12/25 12:15:13;;;;;;;;;;;;;;;6.79;59.75;99634.66;4950511;28;6827;-72
2021/12/25 12:17:40;;;;;;;;;;;;;;;6.77;60.02;99632.81;4933873;28;6820;-72
2021/12/25 12:20:09;;;;;;;;;;;;;;;6.73;59.81;99626.69;4949295;28;6812;-71
2021/12/25 12:22:58;;;;;;;;;;;;;;;6.72;59.54;99632.59;4956584;28;7867;-71
2021/12/25 12:26:01;;;;;;;;;;;;;;;6.71;60.09;99627.41;4949379;28;7056;-71
2021/12/25 12:28:14;;;;;;;;;;;;;;;6.69;59.63;99632.44;4945140;28;6832;-71
2021/12/25 12:30:52;;;;;;;;;;;;;;;6.67;59.64;99637.44;4949319;28;6868;-72
2021/12/25 12:33:18;;;;;;;;;;;;;;;6.63;59.79;99638.09;4949497;28;7242;-72
2021/12/25 12:35:54;;;;;;;;;;;;;;;6.60;59.64;99645.56;4948132;28;6803;-72
2021/12/25 12:38:42;;;;;;;;;;;;;;;6.56;59.74;99645.31;4966961;28;7235;-72
2021/12/25 12:41:27;;;;;;;;;;;;;;;6.49;59.99;99654.31;4951732;28;7265;-72
2021/12/25 12:44:08;;;;;;;;;;;;;;;6.46;59.99;99652.47;4946954;28;6961;-72
2021/12/25 12:46:55;;;;;;;;;;;;;;;6.43;60.21;99648.91;4945902;28;6812;-72
2021/12/25 12:49:49;;;;;;;;;;;;;;;6.39;60.16;99656.38;4951651;28;7225;-72
2021/12/25 12:52:22;;;;;;;;;;;;;;;6.35;59.70;99663.75;4948982;28;6819;-71
2021/12/25 12:54:54;;;;;;;;;;;;;;;6.33;60.08;99668.78;4962672;28;6915;-71
2021/12/25 12:57:39;;;;;;;;;;;;;;;6.29;59.97;99663.47;4948238;28;6827;-72
2021/12/25 13:00:27;;;;;;;;;;;;;;;6.25;59.55;99663.28;4947969;28;6840;-72
2021/12/25 13:02:57;;;;;;;;;;;;;;;6.21;59.82;99661.38;4942948;28;6835;-72
2021/12/25 13:05:34;;;;;;;;;;;;;;;6.18;60.01;99658.66;4933612;28;7019;-72
2021/12/25 13:08:15;;;;;;;;;;;;;;;6.19;60.00;99662.06;4928560;28;6976;-72
2021/12/25 13:10:50;;;;;;;;;;;;;;;6.18;59.71;99661.22;4944267;28;6832;-72
2021/12/25 13:13:28;;;;;;;;;;;;;;;6.17;59.72;99667.06;4950145;28;6832;-71
2021/12/25 13:15:59;;;;;;;;;;;;;;;6.16;59.94;99672.97;4959335;28;7005;-72
2021/12/25 13:18:33;;;;;;;;;;;;;;;6.14;59.74;99664.38;4943718;28;7889;-71
2021/12/25 13:21:05;;;;;;;;;;;;;;;6.10;59.69;99670.97;4945405;28;6828;-71
2021/12/25 13:23:53;;;;;;;;;;;;;;;6.10;59.80;99670.97;4930622;28;8412;-72
2021/12/25 13:26:45;;;;;;;;;;;;;;;6.07;59.68;99672.47;4929022;28;8841;-72
2021/12/25 13:29:21;;;;;;;;;;;;;;;6.06;59.57;99673.25;4943275;28;7085;-72
2021/12/25 13:31:48;;;;;;;;;;;;;;;6.04;60.16;99677.38;4944095;28;8525;-72
2021/12/25 13:34:23;;;;;;;;;;;;;;;6.02;59.49;99677.28;4943442;28;6816;-72
2021/12/25 13:36:54;;;;;;;;;;;;;;;5.97;59.44;99679.56;4946181;28;7506;-72
2021/12/25 13:39:27;;;;;;;;;;;;;;;5.95;59.53;99681.16;4945281;28;6828;-72
2021/12/25 13:42:10;;;;;;;;;;;;;;;5.94;59.72;99681.94;4947247;28;6913;-72
2021/12/25 13:44:40;;;;;;;;;;;;;;;5.94;59.80;99674.31;4942352;28;7234;-72
2021/12/25 13:47:24;;;;;;;;;;;;;;;5.95;59.53;99681.16;4939585;28;6835;-72
2021/12/25 13:50:00;;;;;;;;;;;;;;;5.96;59.53;99676.94;4948589;28;7304;-71
2021/12/25 13:52:33;;;;;;;;;;;;;;;5.96;59.43;99672.72;4949179;28;7185;-71
2021/12/25 13:55:17;;;;;;;;;;;;;;;5.95;59.53;99672.66;4948183;28;6895;-71
2021/12/25 13:57:48;;;;;;;;;;;;;;;5.96;59.42;99672.72;4949350;28;6980;-72
2021/12/25 14:00:23;;;;;;;;;;;;;;;5.98;59.58;99667.72;4947946;28;6819;-71
2021/12/25 14:03:02;;;;;;;;;;;;;;;5.97;59.51;99661.75;4944188;28;7101;-71
2021/12/25 14:05:34;;;;;;;;;;;;;;;5.97;59.62;99660.88;4950066;28;6824;-72
2021/12/25 14:08:00;;;;;;;;;;;;;;;5.97;59.75;99658.34;4923478;28;7546;-72
2021/12/25 14:10:31;;;;;;;;;;;;;;;5.96;59.25;99660.00;4947332;28;6878;-71
2021/12/25 14:13:01;;;;;;;;;;;;;;;5.96;59.37;99657.44;4925150;28;7391;-71
2021/12/25 14:15:32;;;;;;;;;;;;;;;5.97;59.49;99659.19;4936579;28;6854;-71
2021/12/25 14:18:01;;;;;;;;;;;;;;;5.97;59.17;99664.28;4946043;28;8908;-71
2021/12/25 14:20:31;;;;;;;;;;;;;;;6.00;59.73;99662.72;4946751;28;7641;-71
2021/12/25 14:23:09;;;;;;;;;;;;;;;6.02;59.77;99659.47;4941237;28;6946;-71
2021/12/25 14:25:40;;;;;;;;;;;;;;;6.05;59.66;99658.78;4947244;28;7488;-72
2021/12/25 14:28:10;;;;;;;;;;;;;;;6.08;59.87;99656.41;4943136;28;7157;-71
2021/12/25 14:30:58;;;;;;;;;;;;;;;6.10;59.47;99660.78;4950485;28;6808;-71
2021/12/25 14:33:26;;;;;;;;;;;;;;;6.11;59.21;99656.59;4939746;28;7534;-72
2021/12/25 14:35:52;;;;;;;;;;;;;;;6.14;59.72;99666.06;4936908;28;9492;-71
2021/12/25 14:38:19;;;;;;;;;;;;;;;6.15;59.38;99663.56;4935464;28;6815;-72